createdAt,value
2019-01-31T00:01:48.534Z,81.68
2019-01-31T00:05:00.922Z,81.14
2019-01-31T00:08:21.093Z,80.86
2019-01-31T00:11:17.350Z,80.67
2019-01-31T00:14:11.367Z,80.37
2019-01-31T00:17:32.029Z,80.27
2019-01-31T00:20:38.112Z,80.45
2019-01-31T00:23:50.290Z,80.61
2019-01-31T00:26:43.550Z,80.43
2019-01-31T00:29:33.413Z,80.34
2019-01-31T00:32:45.473Z,80.30
2019-01-31T00:35:51.362Z,81.11
2019-01-31T00:38:33.008Z,81.04
2019-01-31T00:41:39.477Z,81.06
2019-01-31T00:44:23.618Z,81.33
2019-01-31T00:46:58.648Z,81.39
2019-01-31T00:49:51.622Z,81.30
2019-01-31T00:53:09.941Z,81.20
2019-01-31T00:56:03.961Z,81.58
2019-01-31T00:58:42.535Z,81.85
2019-01-31T01:01:51.816Z,81.69
2019-01-31T01:05:07.058Z,82.13
2019-01-31T01:08:02.746Z,82.11
2019-01-31T01:10:59.144Z,81.97
2019-01-31T01:13:50.509Z,81.68
2019-01-31T01:16:26.974Z,81.65
2019-01-31T01:19:57.441Z,81.22
2019-01-31T01:22:50.816Z,81.58
2019-01-31T01:26:15.186Z,81.51
2019-01-31T01:29:25.444Z,81.18
2019-01-31T01:32:18.246Z,81.97
2019-01-31T01:35:20.958Z,82.94
2019-01-31T01:38:25.813Z,83.69
2019-01-31T01:41:16.177Z,84.12
2019-01-31T01:44:43.359Z,84.32
2019-01-31T01:47:36.923Z,84.06
2019-01-31T01:50:47.924Z,83.60
2019-01-31T01:53:57.137Z,83.77
2019-01-31T01:56:33.675Z,83.32
2019-01-31T01:59:07.796Z,82.86
2019-01-31T02:02:19.964Z,83.35
2019-01-31T02:05:36.148Z,83.67
2019-01-31T02:08:43.783Z,84.56
2019-01-31T02:11:36.785Z,84.70
2019-01-31T02:14:44.700Z,84.95
2019-01-31T02:17:19.160Z,85.58
2019-01-31T02:20:27.102Z,85.37
2019-01-31T02:23:18.973Z,85.59
2019-01-31T02:26:02.712Z,85.63
2019-01-31T02:29:08.955Z,85.82
2019-01-31T02:32:04.582Z,85.24
2019-01-31T02:35:13.073Z,85.41
2019-01-31T02:38:09.986Z,85.53
2019-01-31T02:41:18.844Z,85.50
2019-01-31T02:44:45.661Z,85.30
2019-01-31T02:47:40.036Z,86.19
2019-01-31T02:50:23.083Z,86.03
2019-01-31T02:53:01.883Z,85.56
2019-01-31T02:56:26.396Z,85.60
2019-01-31T02:59:29.494Z,85.91
2019-01-31T03:02:22.687Z,86.20
2019-01-31T03:05:16.335Z,86.08
2019-01-31T03:08:27.665Z,86.23
2019-01-31T03:11:24.775Z,85.89
2019-01-31T03:14:14.958Z,86.10
2019-01-31T03:17:04.315Z,85.89
2019-01-31T03:19:58.043Z,86.09
2019-01-31T03:22:47.896Z,85.05
2019-01-31T03:25:34.636Z,84.57
2019-01-31T03:28:23.854Z,84.48
2019-01-31T03:31:36.305Z,84.42
2019-01-31T03:34:34.872Z,84.93
2019-01-31T03:37:53.018Z,84.77
2019-01-31T03:40:45.449Z,84.68
2019-01-31T03:43:44.661Z,84.47
2019-01-31T03:46:27.421Z,84.41
2019-01-31T03:49:29.954Z,84.41
2019-01-31T03:52:38.254Z,84.62
2019-01-31T03:55:50.334Z,84.67
2019-01-31T03:58:58.253Z,85.82
2019-01-31T04:01:57.514Z,86.37
2019-01-31T04:04:38.582Z,86.22
2019-01-31T04:07:06.546Z,86.18
2019-01-31T04:09:34.424Z,86.38
2019-01-31T04:12:02.369Z,86.41
2019-01-31T04:14:31.118Z,86.06
2019-01-31T04:16:59.223Z,86.08
2019-01-31T04:19:27.222Z,86.42
2019-01-31T04:21:57.397Z,86.32
2019-01-31T04:24:25.571Z,86.08
2019-01-31T04:26:53.434Z,85.98
2019-01-31T04:29:21.286Z,85.88
2019-01-31T04:31:49.306Z,85.92
2019-01-31T04:34:17.203Z,85.90
2019-01-31T04:36:45.126Z,86.06
2019-01-31T04:39:13.119Z,86.07
2019-01-31T04:41:41.159Z,85.84
2019-01-31T04:44:09.142Z,85.71
2019-01-31T04:46:37.028Z,85.90
2019-01-31T04:49:05.021Z,86.18
2019-01-31T04:51:32.963Z,86.14
2019-01-31T04:54:00.801Z,85.92
2019-01-31T04:56:28.643Z,85.61
2019-01-31T04:58:56.507Z,85.18
2019-01-31T05:01:26.502Z,84.80
2019-01-31T05:03:54.371Z,84.59
2019-01-31T05:06:22.321Z,84.51
2019-01-31T05:08:50.213Z,84.58
2019-01-31T05:11:17.968Z,84.47
2019-01-31T05:13:45.886Z,84.86
2019-01-31T05:16:13.738Z,85.22
2019-01-31T05:18:41.582Z,85.54
2019-01-31T05:21:09.556Z,85.36
2019-01-31T05:23:37.305Z,85.40
2019-01-31T05:26:05.372Z,85.54
2019-01-31T05:28:33.246Z,85.51
2019-01-31T05:31:01.157Z,85.59
2019-01-31T05:33:29.729Z,85.43
2019-01-31T05:35:57.492Z,85.10
2019-01-31T05:38:25.448Z,84.82
2019-01-31T05:40:55.559Z,84.48
2019-01-31T05:43:23.267Z,83.92
2019-01-31T05:45:51.216Z,84.01
2019-01-31T05:48:19.192Z,84.03
2019-01-31T05:50:47.097Z,83.84
2019-01-31T05:53:15.651Z,83.57
2019-01-31T05:55:46.782Z,83.31
2019-01-31T05:58:14.870Z,83.01
2019-01-31T06:00:42.728Z,82.56
2019-01-31T06:03:10.581Z,82.46
2019-01-31T06:05:38.624Z,82.57
2019-01-31T06:08:06.600Z,82.24
2019-01-31T06:10:34.596Z,82.34
2019-01-31T06:13:02.860Z,82.36
2019-01-31T06:15:30.705Z,82.24
2019-01-31T06:17:58.725Z,82.04
2019-01-31T06:20:26.715Z,81.74
2019-01-31T06:22:54.615Z,81.47
2019-01-31T06:25:22.505Z,81.17
2019-01-31T06:27:50.594Z,80.90
2019-01-31T06:30:18.585Z,80.63
2019-01-31T06:32:46.865Z,80.45
2019-01-31T06:35:15.076Z,80.26
2019-01-31T06:37:42.947Z,80.25
2019-01-31T06:40:15.817Z,79.84
2019-01-31T06:42:43.779Z,80.01
2019-01-31T06:45:14.461Z,80.49
2019-01-31T06:47:42.500Z,81.05
2019-01-31T06:50:10.660Z,81.00
2019-01-31T06:52:39.384Z,80.89
2019-01-31T06:55:08.928Z,80.73
2019-01-31T06:57:36.963Z,80.59
2019-01-31T07:00:07.900Z,80.53
2019-01-31T07:02:35.690Z,80.46
2019-01-31T07:05:04.478Z,80.43
2019-01-31T07:07:32.478Z,80.43
2019-01-31T07:10:00.320Z,80.47
2019-01-31T07:12:28.273Z,80.54
2019-01-31T07:14:56.237Z,80.65
2019-01-31T07:17:24.059Z,80.50
2019-01-31T07:19:52.051Z,80.37
2019-01-31T07:22:19.931Z,80.55
2019-01-31T07:24:47.969Z,80.66
2019-01-31T07:27:15.886Z,81.11
2019-01-31T07:29:43.848Z,81.19
2019-01-31T07:32:11.691Z,81.09
2019-01-31T07:34:39.578Z,80.87
2019-01-31T07:37:07.521Z,81.01
2019-01-31T07:39:35.407Z,81.12
2019-01-31T07:42:03.512Z,80.76
2019-01-31T07:44:33.204Z,80.78
2019-01-31T07:47:02.362Z,80.71
2019-01-31T07:49:30.272Z,80.82
2019-01-31T07:51:58.203Z,80.96
2019-01-31T07:54:25.997Z,80.87
2019-01-31T07:56:54.585Z,80.80
2019-01-31T07:59:22.535Z,80.98
2019-01-31T08:01:50.512Z,80.97
2019-01-31T08:04:18.537Z,80.51
2019-01-31T08:06:46.519Z,80.42
2019-01-31T08:09:14.429Z,80.38
2019-01-31T08:11:52.436Z,80.57
2019-01-31T08:14:13.144Z,80.36
2019-01-31T08:16:41.177Z,80.71
2019-01-31T08:19:09.013Z,80.81
2019-01-31T08:21:37.064Z,81.18
2019-01-31T08:24:05.049Z,81.60
2019-01-31T08:26:32.810Z,81.04
2019-01-31T08:29:00.780Z,81.35
2019-01-31T08:31:33.651Z,80.86
2019-01-31T08:34:01.502Z,80.90
2019-01-31T08:36:29.373Z,80.77
2019-01-31T08:38:57.182Z,80.70
2019-01-31T08:41:25.311Z,81.80
2019-01-31T08:43:53.308Z,81.36
2019-01-31T08:46:21.309Z,81.35
2019-01-31T08:48:49.188Z,81.32
2019-01-31T08:51:17.116Z,81.61
2019-01-31T08:53:45.260Z,81.18
2019-01-31T08:56:13.061Z,80.70
2019-01-31T08:58:41.516Z,80.72
2019-01-31T09:01:09.490Z,80.60
2019-01-31T09:03:38.079Z,80.21
2019-01-31T09:06:06.560Z,80.28
2019-01-31T09:08:34.463Z,80.14
2019-01-31T09:11:03.021Z,80.20
2019-01-31T09:13:31.046Z,79.42
2019-01-31T09:15:58.935Z,79.47
2019-01-31T09:18:26.999Z,79.06
2019-01-31T09:21:05.882Z,78.62
2019-01-31T09:24:11.307Z,78.64
2019-01-31T09:27:20.982Z,78.97
2019-01-31T09:30:33.432Z,78.53
2019-01-31T09:33:39.022Z,78.26
2019-01-31T09:37:06.469Z,78.09
2019-01-31T09:40:14.237Z,77.67
2019-01-31T09:43:24.804Z,77.55
2019-01-31T09:46:38.343Z,77.36
2019-01-31T09:49:36.778Z,77.05
2019-01-31T09:52:51.310Z,77.73
2019-01-31T09:55:56.509Z,77.87
2019-01-31T09:58:34.695Z,77.83
2019-01-31T10:01:42.734Z,77.29
2019-01-31T10:04:26.907Z,77.69
2019-01-31T10:07:32.248Z,77.29
2019-01-31T10:10:55.291Z,77.48
2019-01-31T10:14:02.368Z,75.92
2019-01-31T10:17:10.740Z,74.30
2019-01-31T10:19:58.747Z,74.60
2019-01-31T10:22:48.030Z,75.09
2019-01-31T10:25:53.428Z,74.66
2019-01-31T10:28:57.241Z,74.91
2019-01-31T10:31:53.590Z,75.35
2019-01-31T10:34:33.944Z,75.30
2019-01-31T10:37:39.461Z,73.75
2019-01-31T10:40:36.022Z,73.84
2019-01-31T10:43:41.352Z,73.94
2019-01-31T10:46:43.358Z,73.79
2019-01-31T10:49:31.159Z,73.84
2019-01-31T10:52:30.193Z,73.51
2019-01-31T10:55:40.134Z,72.48
2019-01-31T10:58:40.201Z,71.91
2019-01-31T11:01:34.345Z,72.06
2019-01-31T11:04:42.486Z,72.67
2019-01-31T11:07:37.913Z,71.37
2019-01-31T11:10:32.458Z,70.92
2019-01-31T11:13:49.132Z,70.48
2019-01-31T11:16:43.399Z,69.49
2019-01-31T11:19:58.352Z,70.07
2019-01-31T11:23:04.902Z,68.81
2019-01-31T11:26:10.179Z,68.46
2019-01-31T11:29:07.161Z,68.33
2019-01-31T11:32:07.883Z,67.58
2019-01-31T11:34:56.350Z,68.64
2019-01-31T11:38:17.982Z,66.56
2019-01-31T11:41:13.864Z,65.93
2019-01-31T11:44:10.637Z,65.74
2019-01-31T11:46:53.884Z,66.23
2019-01-31T11:49:46.136Z,64.90
2019-01-31T11:52:50.464Z,65.28
2019-01-31T11:55:32.618Z,64.32
2019-01-31T11:58:43.900Z,65.83
2019-01-31T12:01:11.952Z,65.48
2019-01-31T12:03:39.901Z,64.08
2019-01-31T12:06:08.462Z,62.61
2019-01-31T12:08:36.497Z,62.70
2019-01-31T12:11:05.050Z,63.06
2019-01-31T12:13:33.111Z,62.98
2019-01-31T12:16:00.982Z,63.55
2019-01-31T12:18:28.929Z,63.41
2019-01-31T12:20:58.142Z,63.29
2019-01-31T12:23:25.926Z,63.20
2019-01-31T12:25:53.886Z,61.64
2019-01-31T12:28:22.666Z,62.80
2019-01-31T12:30:50.655Z,61.30
2019-01-31T12:33:18.680Z,62.04
2019-01-31T12:35:46.534Z,61.34
2019-01-31T12:38:14.588Z,60.99
2019-01-31T12:40:42.577Z,61.10
2019-01-31T12:43:10.628Z,61.55
2019-01-31T12:45:38.535Z,61.74
2019-01-31T12:48:06.513Z,61.01
2019-01-31T12:50:34.571Z,59.36
2019-01-31T12:53:02.731Z,60.72
2019-01-31T12:55:30.766Z,58.76
2019-01-31T12:57:58.755Z,59.57
2019-01-31T13:00:28.576Z,60.52
2019-01-31T13:02:56.573Z,59.63
2019-01-31T13:05:25.061Z,58.34
2019-01-31T13:07:53.750Z,59.09
2019-01-31T13:10:21.911Z,59.22
2019-01-31T13:12:50.816Z,59.93
2019-01-31T13:15:18.920Z,59.08
2019-01-31T13:17:47.078Z,59.21
2019-01-31T13:20:17.496Z,58.80
2019-01-31T13:22:45.577Z,57.99
2019-01-31T13:25:14.319Z,59.23
2019-01-31T13:27:42.524Z,59.22
2019-01-31T13:30:13.352Z,59.88
2019-01-31T13:32:41.425Z,60.13
2019-01-31T13:35:10.451Z,59.95
2019-01-31T13:37:38.461Z,60.01
2019-01-31T13:40:18.333Z,60.28
2019-01-31T13:42:47.472Z,60.62
2019-01-31T13:45:17.587Z,61.09
2019-01-31T13:47:45.765Z,61.68
2019-01-31T13:50:15.741Z,61.86
2019-01-31T13:52:44.906Z,62.00
2019-01-31T13:55:21.975Z,61.88
2019-01-31T13:57:49.999Z,62.25
2019-01-31T14:00:18.463Z,62.46
2019-01-31T14:02:46.558Z,62.15
2019-01-31T14:05:14.582Z,62.76
2019-01-31T14:07:42.619Z,62.72
2019-01-31T14:10:13.250Z,62.71
2019-01-31T14:12:41.275Z,63.10
2019-01-31T14:15:09.755Z,63.22
2019-01-31T14:17:37.647Z,62.79
2019-01-31T14:20:07.899Z,63.51
2019-01-31T14:22:42.766Z,63.26
2019-01-31T14:25:06.867Z,63.46
2019-01-31T14:27:35.163Z,63.65
2019-01-31T14:30:06.214Z,63.23
2019-01-31T14:32:35.314Z,63.02
2019-01-31T14:35:03.605Z,63.12
2019-01-31T14:37:32.135Z,63.34
2019-01-31T14:40:00.009Z,63.40
2019-01-31T14:42:49.112Z,63.33
2019-01-31T14:45:17.371Z,62.37
2019-01-31T14:47:45.290Z,63.73
2019-01-31T14:50:17.416Z,63.86
2019-01-31T14:52:45.474Z,64.43
2019-01-31T14:55:13.437Z,63.99
2019-01-31T14:57:42.408Z,64.90
2019-01-31T15:00:13.521Z,64.96
2019-01-31T15:02:41.457Z,65.42
2019-01-31T15:05:11.478Z,65.52
2019-01-31T15:07:39.411Z,65.49
2019-01-31T15:10:10.587Z,66.02
2019-01-31T15:12:38.393Z,66.24
2019-01-31T15:15:16.489Z,66.50
2019-01-31T15:17:44.457Z,66.52
2019-01-31T15:20:18.244Z,66.68
2019-01-31T15:22:46.249Z,66.41
2019-01-31T15:25:14.259Z,66.70
2019-01-31T15:27:42.433Z,66.92
2019-01-31T15:30:13.242Z,66.94
2019-01-31T15:32:41.539Z,66.79
2019-01-31T15:35:09.820Z,66.77
2019-01-31T15:37:37.812Z,67.17
2019-01-31T15:40:08.712Z,67.04
2019-01-31T15:42:36.724Z,67.17
2019-01-31T15:45:05.531Z,67.24
2019-01-31T15:47:33.517Z,67.36
2019-01-31T15:50:01.530Z,67.51
2019-01-31T15:52:30.182Z,67.42
2019-01-31T15:54:58.237Z,67.30
2019-01-31T15:57:26.311Z,67.50
2019-01-31T15:59:54.291Z,67.43
2019-01-31T16:02:22.375Z,67.70
2019-01-31T16:04:50.323Z,67.72
2019-01-31T16:07:18.325Z,67.62
2019-01-31T16:09:46.277Z,67.77
2019-01-31T16:12:14.194Z,67.55
2019-01-31T16:14:42.265Z,67.56
2019-01-31T16:17:18.422Z,67.90
2019-01-31T16:19:45.581Z,67.75
2019-01-31T16:22:13.597Z,67.81
2019-01-31T16:24:41.560Z,67.84
2019-01-31T16:27:09.535Z,68.14
2019-01-31T16:29:37.447Z,68.07
2019-01-31T16:32:05.625Z,68.28
2019-01-31T16:34:34.627Z,68.48
2019-01-31T16:37:02.630Z,68.65
2019-01-31T16:39:30.591Z,69.18
2019-01-31T16:41:58.550Z,69.56
2019-01-31T16:44:26.538Z,70.20
2019-01-31T16:46:54.668Z,70.50
2019-01-31T16:49:22.669Z,70.65
2019-01-31T16:51:50.837Z,70.37
2019-01-31T16:54:18.782Z,70.27
2019-01-31T16:56:46.960Z,70.01
2019-01-31T16:59:15.101Z,69.94
2019-01-31T17:01:43.126Z,69.95
2019-01-31T17:04:11.202Z,69.95
2019-01-31T17:06:39.193Z,69.94
2019-01-31T17:09:08.598Z,70.10
2019-01-31T17:11:36.494Z,70.11
2019-01-31T17:14:04.607Z,70.04
2019-01-31T17:16:33.441Z,69.92
2019-01-31T17:19:11.457Z,69.93
2019-01-31T17:21:39.447Z,70.14
2019-01-31T17:24:07.236Z,69.93
2019-01-31T17:26:35.342Z,69.92
2019-01-31T17:29:03.316Z,71.55
2019-01-31T17:31:31.138Z,70.28
2019-01-31T17:33:59.016Z,69.99
2019-01-31T17:36:27.024Z,70.00
2019-01-31T17:38:55.100Z,70.07
2019-01-31T17:41:23.190Z,70.04
2019-01-31T17:43:51.584Z,70.12
2019-01-31T17:46:19.840Z,70.16
2019-01-31T17:48:47.639Z,70.05
2019-01-31T17:51:17.020Z,70.07
2019-01-31T17:53:44.964Z,71.21
2019-01-31T17:56:12.928Z,72.24
2019-01-31T17:58:40.964Z,72.68
2019-01-31T18:01:09.754Z,72.77
2019-01-31T18:03:38.346Z,72.93
2019-01-31T18:06:06.322Z,72.59
2019-01-31T18:08:34.554Z,72.62
2019-01-31T18:11:02.630Z,72.58
2019-01-31T18:13:30.520Z,72.60
2019-01-31T18:15:58.680Z,72.86
2019-01-31T18:18:26.685Z,73.08
2019-01-31T18:20:59.261Z,72.73
2019-01-31T18:23:27.224Z,72.42
2019-01-31T18:25:55.227Z,72.75
2019-01-31T18:28:23.306Z,73.36
2019-01-31T18:31:01.787Z,74.22
2019-01-31T18:33:29.861Z,74.51
2019-01-31T18:35:57.642Z,73.89
2019-01-31T18:38:25.560Z,73.40
2019-01-31T18:40:53.540Z,73.17
2019-01-31T18:43:21.447Z,73.00
2019-01-31T18:45:53.363Z,72.78
2019-01-31T18:48:20.088Z,72.62
2019-01-31T18:50:48.118Z,72.82
2019-01-31T18:53:16.148Z,72.68
2019-01-31T18:55:44.077Z,72.61
2019-01-31T18:58:12.161Z,72.67
2019-01-31T19:00:45.849Z,72.61
2019-01-31T19:03:13.919Z,72.57
2019-01-31T19:05:41.934Z,72.49
2019-01-31T19:08:09.936Z,72.49
2019-01-31T19:10:43.513Z,72.45
2019-01-31T19:13:07.854Z,72.49
2019-01-31T19:15:35.925Z,72.89
2019-01-31T19:18:06.310Z,73.04
2019-01-31T19:20:36.294Z,73.32
2019-01-31T19:23:05.901Z,73.82
2019-01-31T19:25:33.873Z,73.81
2019-01-31T19:28:01.802Z,74.14
2019-01-31T19:30:31.995Z,74.10
2019-01-31T19:33:00.007Z,74.35
2019-01-31T19:35:28.072Z,74.32
2019-01-31T19:38:01.917Z,74.37
2019-01-31T19:40:28.742Z,74.76
2019-01-31T19:42:56.739Z,75.31
2019-01-31T19:45:38.512Z,76.78
2019-01-31T19:48:06.704Z,77.17
2019-01-31T19:50:34.731Z,77.18
2019-01-31T19:53:02.759Z,77.10
2019-01-31T19:55:31.702Z,77.50
2019-01-31T19:57:59.818Z,77.43
2019-01-31T20:00:27.801Z,76.97
2019-01-31T20:02:55.984Z,77.15
2019-01-31T20:05:24.169Z,77.09
2019-01-31T20:07:52.580Z,76.92
2019-01-31T20:10:24.846Z,76.43
2019-01-31T20:12:53.038Z,76.43
2019-01-31T20:15:21.536Z,76.38
2019-01-31T20:17:49.869Z,76.34
2019-01-31T20:20:22.626Z,76.20
2019-01-31T20:22:51.737Z,75.94
2019-01-31T20:25:20.366Z,75.76
2019-01-31T20:27:48.364Z,75.98
2019-01-31T20:30:18.902Z,76.00
2019-01-31T20:32:47.099Z,79.12
2019-01-31T20:35:15.824Z,76.36
2019-01-31T20:37:44.742Z,75.79
2019-01-31T20:40:15.310Z,76.00
2019-01-31T20:42:43.423Z,76.40
2019-01-31T20:45:12.531Z,76.94
2019-01-31T20:47:40.503Z,76.82
2019-01-31T20:50:12.281Z,76.50
2019-01-31T20:52:40.413Z,76.61
2019-01-31T20:55:11.753Z,76.61
2019-01-31T20:57:39.869Z,76.66
2019-01-31T21:00:13.741Z,76.80
2019-01-31T21:02:42.015Z,77.02
2019-01-31T21:05:10.959Z,77.13
2019-01-31T21:07:38.956Z,77.31
2019-01-31T21:10:07.910Z,77.15
2019-01-31T21:12:35.903Z,77.63
2019-01-31T21:15:05.657Z,77.32
2019-01-31T21:17:33.617Z,77.24
2019-01-31T21:20:01.590Z,77.10
2019-01-31T21:22:29.471Z,77.15
2019-01-31T21:24:57.392Z,77.24
2019-01-31T21:27:25.368Z,77.44
2019-01-31T21:29:53.320Z,77.67
2019-01-31T21:32:21.386Z,77.59
2019-01-31T21:34:49.539Z,77.04
2019-01-31T21:37:17.530Z,77.00
2019-01-31T21:39:45.596Z,76.59
2019-01-31T21:42:13.503Z,76.42
2019-01-31T21:44:42.261Z,76.84
2019-01-31T21:47:12.504Z,77.06
2019-01-31T21:49:40.520Z,77.24
2019-01-31T21:52:08.769Z,77.57
2019-01-31T21:54:36.756Z,77.71
2019-01-31T21:57:05.413Z,78.08
2019-01-31T21:59:33.435Z,78.60
2019-01-31T22:02:01.436Z,78.26
2019-01-31T22:04:29.288Z,78.15
2019-01-31T22:06:57.175Z,78.23
2019-01-31T22:09:25.335Z,78.12
2019-01-31T22:11:53.454Z,78.42
2019-01-31T22:14:21.221Z,78.80
2019-01-31T22:16:49.052Z,79.54
2019-01-31T22:19:16.943Z,80.04
2019-01-31T22:21:44.895Z,81.18
2019-01-31T22:24:12.815Z,81.64
2019-01-31T22:26:41.573Z,81.95
2019-01-31T22:29:09.448Z,82.06
2019-01-31T22:31:37.392Z,81.69
2019-01-31T22:34:05.457Z,82.00
2019-01-31T22:36:33.476Z,81.89
2019-01-31T22:39:01.430Z,82.09
2019-01-31T22:41:29.390Z,83.01
2019-01-31T22:43:57.363Z,83.43
2019-01-31T22:46:25.317Z,83.66
2019-01-31T22:48:53.173Z,83.30
2019-01-31T22:51:21.071Z,83.21
2019-01-31T22:53:48.821Z,82.79
2019-01-31T22:56:16.773Z,83.04
2019-01-31T22:58:44.660Z,83.09
2019-01-31T23:01:33.720Z,83.46
2019-01-31T23:04:08.571Z,83.50
2019-01-31T23:06:36.560Z,83.33
2019-01-31T23:09:08.680Z,83.25
2019-01-31T23:11:36.664Z,82.97
2019-01-31T23:14:04.792Z,83.04
2019-01-31T23:16:32.840Z,83.30
2019-01-31T23:19:00.891Z,83.35
2019-01-31T23:21:28.738Z,83.28
2019-01-31T23:23:56.706Z,83.13
2019-01-31T23:26:24.643Z,83.73
2019-01-31T23:28:52.523Z,84.17
2019-01-31T23:31:20.540Z,83.86
2019-01-31T23:33:48.483Z,83.86
2019-01-31T23:36:16.505Z,83.70
2019-01-31T23:38:44.252Z,83.61
2019-01-31T23:41:12.157Z,83.59
2019-01-31T23:43:40.192Z,83.74
2019-01-31T23:46:08.186Z,83.86
2019-01-31T23:48:36.248Z,84.41
2019-01-31T23:51:04.357Z,84.67
2019-01-31T23:53:32.242Z,84.41
2019-01-31T23:56:00.208Z,83.94
2019-01-31T23:58:28.141Z,84.04
